sensor_id;sensor_type;location;lat;lon;timestamp;pressure;altitude;pressure_sealevel;temperature;humidity
59971;BME280;45825;45.434;9.116;2023-02-02T00:01:50;100810.56;;;7.75;82.50
59971;BME280;45825;45.434;9.116;2023-02-02T00:04:25;100821.75;;;7.79;82.15
59971;BME280;45825;45.434;9.116;2023-02-02T00:06:52;100825.88;;;7.86;81.60
59971;BME280;45825;45.434;9.116;2023-02-02T00:09:19;100830.22;;;7.87;81.51
59971;BME280;45825;45.434;9.116;2023-02-02T00:11:46;100823.84;;;7.94;81.08
59971;BME280;45825;45.434;9.116;2023-02-02T00:14:12;100822.91;;;7.97;80.76
59971;BME280;45825;45.434;9.116;2023-02-02T00:16:46;100815.22;;;7.92;80.79
59971;BME280;45825;45.434;9.116;2023-02-02T00:19:15;100803.38;;;7.80;80.56
59971;BME280;45825;45.434;9.116;2023-02-02T00:21:41;100824.69;;;7.95;80.30
59971;BME280;45825;45.434;9.116;2023-02-02T00:24:09;100820.75;;;7.83;80.89
59971;BME280;45825;45.434;9.116;2023-02-02T00:26:35;100818.22;;;7.80;81.28
59971;BME280;45825;45.434;9.116;2023-02-02T00:29:01;100814.03;;;7.76;81.31
59971;BME280;45825;45.434;9.116;2023-02-02T00:31:26;100817.44;;;7.78;81.44
59971;BME280;45825;45.434;9.116;2023-02-02T00:33:52;100810.38;;;7.80;80.92
59971;BME280;45825;45.434;9.116;2023-02-02T00:36:18;100814.81;;;7.78;80.94
59971;BME280;45825;45.434;9.116;2023-02-02T00:38:44;100817.81;;;7.67;81.43
59971;BME280;45825;45.434;9.116;2023-02-02T00:41:10;100821.75;;;7.79;80.41
59971;BME280;45825;45.434;9.116;2023-02-02T00:43:35;100818.97;;;7.83;80.30
59971;BME280;45825;45.434;9.116;2023-02-02T00:46:00;100823.47;;;7.80;80.37
59971;BME280;45825;45.434;9.116;2023-02-02T00:48:26;100826.63;;;7.90;79.50
59971;BME280;45825;45.434;9.116;2023-02-02T00:50:52;100831.84;;;7.91;79.12
59971;BME280;45825;45.434;9.116;2023-02-02T00:53:17;100822.59;;;7.81;79.60
59971;BME280;45825;45.434;9.116;2023-02-02T00:55:42;100823.66;;;7.75;79.89
59971;BME280;45825;45.434;9.116;2023-02-02T00:58:08;100822.69;;;7.78;79.91
59971;BME280;45825;45.434;9.116;2023-02-02T01:00:33;100813.06;;;7.78;78.72
59971;BME280;45825;45.434;9.116;2023-02-02T01:02:58;100825.22;;;7.81;78.28
59971;BME280;45825;45.434;9.116;2023-02-02T01:05:29;100834.78;;;7.82;78.51
59971;BME280;45825;45.434;9.116;2023-02-02T01:07:54;100833.00;;;7.82;77.84
59971;BME280;45825;45.434;9.116;2023-02-02T01:10:20;100833.22;;;7.76;77.41
59971;BME280;45825;45.434;9.116;2023-02-02T01:12:45;100829.78;;;7.74;77.55
59971;BME280;45825;45.434;9.116;2023-02-02T01:15:11;100829.75;;;7.76;77.52
59971;BME280;45825;45.434;9.116;2023-02-02T01:17:37;100831.84;;;7.66;77.59
59971;BME280;45825;45.434;9.116;2023-02-02T01:20:04;100823.25;;;7.61;77.79
59971;BME280;45825;45.434;9.116;2023-02-02T01:22:30;100826.53;;;7.67;77.99
59971;BME280;45825;45.434;9.116;2023-02-02T01:24:58;100818.56;;;7.71;77.77
59971;BME280;45825;45.434;9.116;2023-02-02T01:27:24;100814.06;;;7.74;77.32
59971;BME280;45825;45.434;9.116;2023-02-02T01:29:49;100826.06;;;7.81;76.69
59971;BME280;45825;45.434;9.116;2023-02-02T01:32:14;100832.97;;;7.84;76.03
59971;BME280;45825;45.434;9.116;2023-02-02T01:34:40;100828.22;;;7.94;75.24
59971;BME280;45825;45.434;9.116;2023-02-02T01:37:07;100832.34;;;8.01;74.81
59971;BME280;45825;45.434;9.116;2023-02-02T01:39:32;100832.31;;;8.03;74.52
59971;BME280;45825;45.434;9.116;2023-02-02T01:41:58;100834.81;;;8.06;74.31
59971;BME280;45825;45.434;9.116;2023-02-02T01:47:24;100837.31;;;8.09;74.10
59971;BME280;45825;45.434;9.116;2023-02-02T01:49:51;100836.47;;;8.08;73.71
59971;BME280;45825;45.434;9.116;2023-02-02T01:52:20;100834.81;;;8.06;74.17
59971;BME280;45825;45.434;9.116;2023-02-02T01:54:49;100819.59;;;8.16;73.51
59971;BME280;45825;45.434;9.116;2023-02-02T01:57:25;100825.72;;;8.16;73.87
59971;BME280;45825;45.434;9.116;2023-02-02T01:59:54;100827.47;;;8.16;73.41
59971;BME280;45825;45.434;9.116;2023-02-02T02:02:21;100829.13;;;8.18;73.19
59971;BME280;45825;45.434;9.116;2023-02-02T02:04:48;100813.72;;;8.09;74.24
59971;BME280;45825;45.434;9.116;2023-02-02T02:07:14;100820.63;;;8.11;73.93
59971;BME280;45825;45.434;9.116;2023-02-02T02:09:39;100818.97;;;8.09;74.15
59971;BME280;45825;45.434;9.116;2023-02-02T02:12:15;100817.97;;;8.13;73.89
59971;BME280;45825;45.434;9.116;2023-02-02T02:14:45;100826.91;;;8.07;74.27
59971;BME280;45825;45.434;9.116;2023-02-02T02:20:57;100825.00;;;8.11;73.76
59971;BME280;45825;45.434;9.116;2023-02-02T02:24:05;100824.03;;;8.14;73.39
59971;BME280;45825;45.434;9.116;2023-02-02T02:39:54;100827.56;;;7.89;74.07
59971;BME280;45825;45.434;9.116;2023-02-02T02:42:24;100820.50;;;7.91;74.28
59971;BME280;45825;45.434;9.116;2023-02-02T02:44:52;100824.78;;;7.93;73.98
59971;BME280;45825;45.434;9.116;2023-02-02T02:47:20;100826.69;;;7.88;74.36
59971;BME280;45825;45.434;9.116;2023-02-02T02:49:47;100823.28;;;7.86;74.12
59971;BME280;45825;45.434;9.116;2023-02-02T02:52:14;100817.88;;;7.91;73.29
59971;BME280;45825;45.434;9.116;2023-02-02T02:54:43;100817.28;;;7.82;73.70
59971;BME280;45825;45.434;9.116;2023-02-02T02:57:38;100826.91;;;7.82;74.16
59971;BME280;45825;45.434;9.116;2023-02-02T03:06:02;100817.72;;;7.70;74.51
59971;BME280;45825;45.434;9.116;2023-02-02T03:08:39;100810.81;;;7.67;74.54
59971;BME280;45825;45.434;9.116;2023-02-02T03:11:10;100824.47;;;7.77;74.05
59971;BME280;45825;45.434;9.116;2023-02-02T03:13:36;100824.38;;;7.79;73.65
59971;BME280;45825;45.434;9.116;2023-02-02T03:16:01;100827.00;;;7.79;73.26
59971;BME280;45825;45.434;9.116;2023-02-02T03:18:28;100831.75;;;7.67;72.99
59971;BME280;45825;45.434;9.116;2023-02-02T03:20:55;100827.66;;;7.60;73.79
59971;BME280;45825;45.434;9.116;2023-02-02T03:23:20;100826.69;;;7.63;73.58
59971;BME280;45825;45.434;9.116;2023-02-02T03:25:46;100834.44;;;7.66;73.50
59971;BME280;45825;45.434;9.116;2023-02-02T03:28:12;100833.44;;;7.70;73.42
59971;BME280;45825;45.434;9.116;2023-02-02T03:30:39;100831.75;;;7.67;72.98
59971;BME280;45825;45.434;9.116;2023-02-02T03:33:05;100829.97;;;7.69;73.25
59971;BME280;45825;45.434;9.116;2023-02-02T03:35:31;100832.59;;;7.69;72.51
59971;BME280;45825;45.434;9.116;2023-02-02T03:37:56;100833.53;;;7.67;72.45
59971;BME280;45825;45.434;9.116;2023-02-02T03:40:22;100836.16;;;7.67;72.20
59971;BME280;45825;45.434;9.116;2023-02-02T03:42:47;100840.44;;;7.69;71.96
59971;BME280;45825;45.434;9.116;2023-02-02T03:45:12;100836.91;;;7.71;71.14
59971;BME280;45825;45.434;9.116;2023-02-02T03:47:38;100830.84;;;7.68;70.24
59971;BME280;45825;45.434;9.116;2023-02-02T03:50:04;100828.06;;;7.73;69.02
59971;BME280;45825;45.434;9.116;2023-02-02T03:52:30;100831.72;;;7.69;68.98
59971;BME280;45825;45.434;9.116;2023-02-02T03:54:55;100827.34;;;7.69;68.08
59971;BME280;45825;45.434;9.116;2023-02-02T03:57:20;100822.47;;;7.59;67.74
59971;BME280;45825;45.434;9.116;2023-02-02T03:59:46;100821.09;;;7.47;67.90
59971;BME280;45825;45.434;9.116;2023-02-02T04:02:11;100812.72;;;7.37;68.21
59971;BME280;45825;45.434;9.116;2023-02-02T04:04:36;100814.38;;;7.39;67.07
59971;BME280;45825;45.434;9.116;2023-02-02T04:07:02;100822.53;;;7.30;67.24
59971;BME280;45825;45.434;9.116;2023-02-02T04:09:27;100821.09;;;7.21;66.18
59971;BME280;45825;45.434;9.116;2023-02-02T04:11:53;100813.31;;;7.18;65.96
59971;BME280;45825;45.434;9.116;2023-02-02T04:14:18;100808.00;;;7.21;64.75
59971;BME280;45825;45.434;9.116;2023-02-02T04:16:43;100818.53;;;7.18;64.75
59971;BME280;45825;45.434;9.116;2023-02-02T04:19:09;100820.22;;;7.21;64.58
59971;BME280;45825;45.434;9.116;2023-02-02T04:21:37;100821.81;;;7.25;64.33
59971;BME280;45825;45.434;9.116;2023-02-02T04:24:03;100812.91;;;7.31;62.70
59971;BME280;45825;45.434;9.116;2023-02-02T04:26:28;100822.78;;;7.22;62.02
59971;BME280;45825;45.434;9.116;2023-02-02T04:28:54;100822.03;;;7.19;61.81
59971;BME280;45825;45.434;9.116;2023-02-02T04:31:19;100832.50;;;7.19;61.70
59971;BME280;45825;45.434;9.116;2023-02-02T04:33:44;100825.56;;;7.18;61.94
59971;BME280;45825;45.434;9.116;2023-02-02T04:36:10;100833.34;;;7.19;61.89
59971;BME280;45825;45.434;9.116;2023-02-02T04:38:35;100833.25;;;7.22;61.86
59971;BME280;45825;45.434;9.116;2023-02-02T04:41:09;100834.06;;;7.24;61.77
59971;BME280;45825;45.434;9.116;2023-02-02T04:43:35;100835.13;;;7.19;60.38
59971;BME280;45825;45.434;9.116;2023-02-02T04:46:02;100829.25;;;7.10;60.93
59971;BME280;45825;45.434;9.116;2023-02-02T04:48:27;100831.25;;;7.02;60.62
59971;BME280;45825;45.434;9.116;2023-02-02T04:51:00;100829.56;;;7.01;60.43
59971;BME280;45825;45.434;9.116;2023-02-02T04:53:26;100821.94;;;6.93;60.05
59971;BME280;45825;45.434;9.116;2023-02-02T04:55:51;100826.38;;;6.91;59.74
59971;BME280;45825;45.434;9.116;2023-02-02T04:58:17;100837.25;;;7.06;59.63
59971;BME280;45825;45.434;9.116;2023-02-02T05:00:42;100844.03;;;7.13;59.22
59971;BME280;45825;45.434;9.116;2023-02-02T05:03:08;100834.47;;;7.12;59.06
59971;BME280;45825;45.434;9.116;2023-02-02T05:05:33;100846.69;;;7.11;59.08
59971;BME280;45825;45.434;9.116;2023-02-02T05:07:58;100845.84;;;7.11;58.73
59971;BME280;45825;45.434;9.116;2023-02-02T05:10:24;100848.66;;;7.03;58.09
59971;BME280;45825;45.434;9.116;2023-02-02T05:12:54;100844.44;;;6.99;57.37
59971;BME280;45825;45.434;9.116;2023-02-02T05:15:19;100850.59;;;6.98;57.29
59971;BME280;45825;45.434;9.116;2023-02-02T05:17:48;100858.59;;;6.93;57.12
59971;BME280;45825;45.434;9.116;2023-02-02T05:20:13;100861.75;;;7.03;57.35
59971;BME280;45825;45.434;9.116;2023-02-02T05:22:39;100866.91;;;7.06;57.10
59971;BME280;45825;45.434;9.116;2023-02-02T05:25:05;100870.31;;;7.10;57.19
59971;BME280;45825;45.434;9.116;2023-02-02T05:27:31;100862.66;;;7.02;56.94
59971;BME280;45825;45.434;9.116;2023-02-02T05:29:56;100867.38;;;6.91;56.58
59971;BME280;45825;45.434;9.116;2023-02-02T05:32:22;100868.91;;;6.98;56.80
59971;BME280;45825;45.434;9.116;2023-02-02T05:34:47;100883.06;;;6.91;57.27
59971;BME280;45825;45.434;9.116;2023-02-02T05:37:13;100878.06;;;6.83;57.41
59971;BME280;45825;45.434;9.116;2023-02-02T05:39:38;100881.72;;;6.77;57.54
59971;BME280;45825;45.434;9.116;2023-02-02T05:42:03;100893.06;;;6.78;58.17
59971;BME280;45825;45.434;9.116;2023-02-02T05:44:29;100887.91;;;6.75;58.32
59971;BME280;45825;45.434;9.116;2023-02-02T05:46:54;100899.41;;;6.69;58.56
59971;BME280;45825;45.434;9.116;2023-02-02T05:49:19;100896.91;;;6.64;59.28
59971;BME280;45825;45.434;9.116;2023-02-02T05:51:51;100895.47;;;6.54;59.57
59971;BME280;45825;45.434;9.116;2023-02-02T05:54:18;100902.63;;;6.47;59.70
59971;BME280;45825;45.434;9.116;2023-02-02T05:56:49;100905.25;;;6.47;59.95
59971;BME280;45825;45.434;9.116;2023-02-02T05:59:16;100910.72;;;6.38;60.37
59971;BME280;45825;45.434;9.116;2023-02-02T06:01:42;100909.81;;;6.39;60.25
59971;BME280;45825;45.434;9.116;2023-02-02T06:04:08;100917.38;;;6.50;59.76
59971;BME280;45825;45.434;9.116;2023-02-02T06:06:33;100913.56;;;6.30;59.69
59971;BME280;45825;45.434;9.116;2023-02-02T06:09:00;100905.13;;;6.20;59.81
59971;BME280;45825;45.434;9.116;2023-02-02T06:11:25;100908.94;;;6.07;59.69
59971;BME280;45825;45.434;9.116;2023-02-02T06:13:50;100910.00;;;5.98;60.36
59971;BME280;45825;45.434;9.116;2023-02-02T06:16:16;100916.06;;;6.00;59.27
59971;BME280;45825;45.434;9.116;2023-02-02T06:18:41;100921.66;;;5.86;60.36
59971;BME280;45825;45.434;9.116;2023-02-02T06:21:07;100916.47;;;5.83;60.65
59971;BME280;45825;45.434;9.116;2023-02-02T06:23:33;100912.34;;;5.76;61.71
59971;BME280;45825;45.434;9.116;2023-02-02T06:25:59;100907.22;;;5.71;61.57
59971;BME280;45825;45.434;9.116;2023-02-02T06:28:24;100907.63;;;5.54;62.03
59971;BME280;45825;45.434;9.116;2023-02-02T06:30:50;100909.38;;;5.53;62.24
59971;BME280;45825;45.434;9.116;2023-02-02T06:33:15;100918.09;;;5.52;61.99
59971;BME280;45825;45.434;9.116;2023-02-02T06:35:41;100920.72;;;5.52;62.51
59971;BME280;45825;45.434;9.116;2023-02-02T06:38:06;100931.03;;;5.58;61.78
59971;BME280;45825;45.434;9.116;2023-02-02T06:40:31;100934.34;;;5.65;61.35
59971;BME280;45825;45.434;9.116;2023-02-02T06:42:58;100926.53;;;5.64;60.69
59971;BME280;45825;45.434;9.116;2023-02-02T06:45:25;100925.84;;;5.57;60.67
59971;BME280;45825;45.434;9.116;2023-02-02T06:47:51;100930.97;;;5.60;60.42
59971;BME280;45825;45.434;9.116;2023-02-02T06:50:16;100931.06;;;5.55;60.21
59971;BME280;45825;45.434;9.116;2023-02-02T06:52:49;100934.25;;;5.32;60.44
59971;BME280;45825;45.434;9.116;2023-02-02T06:55:15;100937.34;;;5.09;61.15
59971;BME280;45825;45.434;9.116;2023-02-02T06:57:40;100933.84;;;5.10;60.81
59971;BME280;45825;45.434;9.116;2023-02-02T07:00:06;100936.66;;;5.00;61.59
59971;BME280;45825;45.434;9.116;2023-02-02T07:02:32;100942.06;;;4.91;61.01
59971;BME280;45825;45.434;9.116;2023-02-02T07:04:57;100942.66;;;4.61;62.33
59971;BME280;45825;45.434;9.116;2023-02-02T07:07:22;100941.69;;;4.67;62.49
59971;BME280;45825;45.434;9.116;2023-02-02T07:09:48;100946.06;;;4.67;62.02
59971;BME280;45825;45.434;9.116;2023-02-02T07:12:13;100943.47;;;4.65;62.67
59971;BME280;45825;45.434;9.116;2023-02-02T07:14:38;100950.31;;;4.71;61.58
59971;BME280;45825;45.434;9.116;2023-02-02T07:17:04;100947.81;;;4.65;61.57
59971;BME280;45825;45.434;9.116;2023-02-02T07:19:29;100956.47;;;4.67;61.52
59971;BME280;45825;45.434;9.116;2023-02-02T07:21:55;100954.88;;;4.59;61.45
59971;BME280;45825;45.434;9.116;2023-02-02T07:24:21;100951.53;;;4.53;62.06
59971;BME280;45825;45.434;9.116;2023-02-02T07:26:46;100953.22;;;4.55;61.64
59971;BME280;45825;45.434;9.116;2023-02-02T07:29:12;100945.53;;;4.47;61.13
59971;BME280;45825;45.434;9.116;2023-02-02T07:31:40;100950.97;;;4.37;61.25
59971;BME280;45825;45.434;9.116;2023-02-02T07:34:07;100950.09;;;4.36;61.38
59971;BME280;45825;45.434;9.116;2023-02-02T07:36:32;100945.63;;;4.43;60.93
59971;BME280;45825;45.434;9.116;2023-02-02T07:38:58;100951.78;;;4.39;60.82
59971;BME280;45825;45.434;9.116;2023-02-02T07:41:26;100949.41;;;4.26;61.15
59971;BME280;45825;45.434;9.116;2023-02-02T07:43:52;100948.59;;;4.24;61.60
59971;BME280;45825;45.434;9.116;2023-02-02T07:46:19;100951.84;;;4.36;61.75
59971;BME280;45825;45.434;9.116;2023-02-02T07:48:45;100944.03;;;4.36;61.04
59971;BME280;45825;45.434;9.116;2023-02-02T07:51:14;100957.00;;;4.39;60.61
59971;BME280;45825;45.434;9.116;2023-02-02T07:53:44;100960.50;;;4.38;60.46
59971;BME280;45825;45.434;9.116;2023-02-02T07:58:37;100970.78;;;4.45;60.81
59971;BME280;45825;45.434;9.116;2023-02-02T08:01:04;100972.94;;;4.69;59.79
59971;BME280;45825;45.434;9.116;2023-02-02T08:03:29;100971.00;;;4.79;59.65
59971;BME280;45825;45.434;9.116;2023-02-02T08:05:56;100971.81;;;4.82;59.13
59971;BME280;45825;45.434;9.116;2023-02-02T08:08:22;100971.56;;;4.95;59.18
59971;BME280;45825;45.434;9.116;2023-02-02T08:10:49;100967.78;;;5.08;58.27
59971;BME280;45825;45.434;9.116;2023-02-02T08:13:14;100968.78;;;5.02;58.40
59971;BME280;45825;45.434;9.116;2023-02-02T08:15:40;100973.88;;;5.10;57.90
59971;BME280;45825;45.434;9.116;2023-02-02T08:18:05;100984.72;;;5.31;57.42
59971;BME280;45825;45.434;9.116;2023-02-02T08:20:30;100986.34;;;5.37;56.95
59971;BME280;45825;45.434;9.116;2023-02-02T08:22:57;100984.25;;;5.53;56.60
59971;BME280;45825;45.434;9.116;2023-02-02T08:25:23;100978.16;;;5.52;55.99
59971;BME280;45825;45.434;9.116;2023-02-02T08:27:52;100976.22;;;5.61;55.69
59971;BME280;45825;45.434;9.116;2023-02-02T08:30:18;100965.41;;;5.76;55.39
59971;BME280;45825;45.434;9.116;2023-02-02T08:32:43;100978.09;;;5.92;54.79
59971;BME280;45825;45.434;9.116;2023-02-02T08:35:09;100974.34;;;6.04;54.23
59971;BME280;45825;45.434;9.116;2023-02-02T08:37:34;100977.53;;;6.15;53.45
59971;BME280;45825;45.434;9.116;2023-02-02T08:39:59;100977.31;;;6.24;52.89
59971;BME280;45825;45.434;9.116;2023-02-02T08:42:25;100982.44;;;6.27;53.40
59971;BME280;45825;45.434;9.116;2023-02-02T08:44:50;100984.81;;;6.37;53.33
59971;BME280;45825;45.434;9.116;2023-02-02T08:47:15;100979.34;;;6.46;53.12
59971;BME280;45825;45.434;9.116;2023-02-02T08:49:40;100980.94;;;6.52;52.94
59971;BME280;45825;45.434;9.116;2023-02-02T08:52:06;100978.06;;;6.63;53.40
59971;BME280;45825;45.434;9.116;2023-02-02T08:54:31;100987.31;;;6.75;52.95
59971;BME280;45825;45.434;9.116;2023-02-02T08:56:57;100990.53;;;6.84;52.12
59971;BME280;45825;45.434;9.116;2023-02-02T08:59:26;100998.13;;;6.94;51.94
59971;BME280;45825;45.434;9.116;2023-02-02T09:01:51;100996.88;;;7.07;51.22
59971;BME280;45825;45.434;9.116;2023-02-02T09:04:16;101004.50;;;7.15;51.71
59971;BME280;45825;45.434;9.116;2023-02-02T09:06:43;101014.50;;;7.31;51.05
59971;BME280;45825;45.434;9.116;2023-02-02T09:09:13;101023.63;;;7.47;51.20
59971;BME280;45825;45.434;9.116;2023-02-02T09:11:39;101019.28;;;7.46;51.65
59971;BME280;45825;45.434;9.116;2023-02-02T09:14:05;101038.28;;;7.53;52.15
59971;BME280;45825;45.434;9.116;2023-02-02T09:16:32;101038.56;;;7.44;52.79
59971;BME280;45825;45.434;9.116;2023-02-02T09:18:58;101028.22;;;7.39;53.22
59971;BME280;45825;45.434;9.116;2023-02-02T09:21:24;101034.19;;;7.44;53.62
59971;BME280;45825;45.434;9.116;2023-02-02T09:23:50;101026.91;;;7.54;52.83
59971;BME280;45825;45.434;9.116;2023-02-02T09:26:25;101026.00;;;7.55;52.80
59971;BME280;45825;45.434;9.116;2023-02-02T09:28:53;101017.97;;;7.61;53.32
59971;BME280;45825;45.434;9.116;2023-02-02T09:31:21;101021.69;;;7.52;53.52
59971;BME280;45825;45.434;9.116;2023-02-02T09:33:49;101016.28;;;7.59;53.12
59971;BME280;45825;45.434;9.116;2023-02-02T09:36:17;101018.34;;;7.77;53.48
59971;BME280;45825;45.434;9.116;2023-02-02T09:38:44;101032.00;;;7.87;53.50
59971;BME280;45825;45.434;9.116;2023-02-02T09:49:12;101027.50;;;8.18;51.72
59971;BME280;45825;45.434;9.116;2023-02-02T09:51:40;101032.44;;;8.27;51.37
59971;BME280;45825;45.434;9.116;2023-02-02T09:54:35;101036.84;;;8.27;51.92
59971;BME280;45825;45.434;9.116;2023-02-02T09:57:04;101027.53;;;8.43;52.06
59971;BME280;45825;45.434;9.116;2023-02-02T09:59:38;101039.38;;;8.57;51.65
59971;BME280;45825;45.434;9.116;2023-02-02T10:02:16;101031.16;;;8.66;51.60
59971;BME280;45825;45.434;9.116;2023-02-02T10:04:46;101034.25;;;8.77;51.33
59971;BME280;45825;45.434;9.116;2023-02-02T10:07:20;101033.72;;;8.93;50.15
59971;BME280;45825;45.434;9.116;2023-02-02T10:15:09;101024.97;;;9.40;47.35
59971;BME280;45825;45.434;9.116;2023-02-02T10:17:50;101020.72;;;9.60;46.48
59971;BME280;45825;45.434;9.116;2023-02-02T10:20:35;101016.97;;;9.88;45.14
59971;BME280;45825;45.434;9.116;2023-02-02T10:23:14;101015.63;;;10.00;43.80
59971;BME280;45825;45.434;9.116;2023-02-02T10:26:09;101009.09;;;10.10;43.85
59971;BME280;45825;45.434;9.116;2023-02-02T10:31:40;101024.81;;;10.74;42.68
59971;BME280;45825;45.434;9.116;2023-02-02T10:34:15;101022.75;;;11.21;41.94
59971;BME280;45825;45.434;9.116;2023-02-02T10:37:21;101018.09;;;11.64;41.16
59971;BME280;45825;45.434;9.116;2023-02-02T10:42:35;101011.75;;;12.23;39.30
59971;BME280;45825;45.434;9.116;2023-02-02T10:45:11;101004.94;;;12.88;37.97
59971;BME280;45825;45.434;9.116;2023-02-02T10:47:38;100994.84;;;14.07;36.57
59971;BME280;45825;45.434;9.116;2023-02-02T10:50:19;100993.38;;;15.48;33.28
59971;BME280;45825;45.434;9.116;2023-02-02T10:52:52;100987.25;;;16.54;32.06
59971;BME280;45825;45.434;9.116;2023-02-02T10:55:27;100984.94;;;17.50;29.51
59971;BME280;45825;45.434;9.116;2023-02-02T11:03:16;100978.22;;;22.22;24.36
59971;BME280;45825;45.434;9.116;2023-02-02T11:05:44;100985.66;;;22.85;23.51
59971;BME280;45825;45.434;9.116;2023-02-02T11:08:54;100979.88;;;24.35;21.94
59971;BME280;45825;45.434;9.116;2023-02-02T11:11:38;100963.59;;;24.37;21.32
59971;BME280;45825;45.434;9.116;2023-02-02T11:16:38;100962.69;;;26.24;19.38
59971;BME280;45825;45.434;9.116;2023-02-02T11:21:44;100947.84;;;27.16;18.19
59971;BME280;45825;45.434;9.116;2023-02-02T11:27:11;100948.41;;;27.50;17.43
59971;BME280;45825;45.434;9.116;2023-02-02T11:37:30;100933.53;;;27.77;17.44
59971;BME280;45825;45.434;9.116;2023-02-02T11:40:28;100929.19;;;28.81;17.23
59971;BME280;45825;45.434;9.116;2023-02-02T11:42:56;100931.00;;;28.59;16.86
59971;BME280;45825;45.434;9.116;2023-02-02T11:45:36;100924.66;;;28.82;16.90
59971;BME280;45825;45.434;9.116;2023-02-02T11:48:28;100925.22;;;29.58;16.34
59971;BME280;45825;45.434;9.116;2023-02-02T11:50:56;100923.25;;;29.73;16.57
59971;BME280;45825;45.434;9.116;2023-02-02T11:53:26;100919.50;;;29.09;17.21
59971;BME280;45825;45.434;9.116;2023-02-02T11:55:53;100906.25;;;29.58;16.85
59971;BME280;45825;45.434;9.116;2023-02-02T12:00:57;100891.38;;;28.51;16.45
59971;BME280;45825;45.434;9.116;2023-02-02T12:03:26;100887.00;;;29.09;16.70
59971;BME280;45825;45.434;9.116;2023-02-02T12:05:52;100891.09;;;29.20;16.28
59971;BME280;45825;45.434;9.116;2023-02-02T12:08:17;100887.50;;;30.20;15.77
59971;BME280;45825;45.434;9.116;2023-02-02T12:11:01;100876.09;;;30.38;16.07
59971;BME280;45825;45.434;9.116;2023-02-02T12:13:42;100877.97;;;30.86;15.92
59971;BME280;45825;45.434;9.116;2023-02-02T12:16:36;100882.88;;;31.45;15.40
59971;BME280;45825;45.434;9.116;2023-02-02T12:19:17;100876.50;;;30.84;15.56
59971;BME280;45825;45.434;9.116;2023-02-02T12:22:06;100870.94;;;31.59;15.15
59971;BME280;45825;45.434;9.116;2023-02-02T12:24:55;100867.13;;;31.00;15.59
59971;BME280;45825;45.434;9.116;2023-02-02T12:30:30;100860.25;;;31.71;14.32
59971;BME280;45825;45.434;9.116;2023-02-02T12:33:00;100854.72;;;32.12;13.58
59971;BME280;45825;45.434;9.116;2023-02-02T12:49:39;100835.09;;;33.70;13.29
59971;BME280;45825;45.434;9.116;2023-02-02T13:03:08;100844.34;;;33.19;14.01
59971;BME280;45825;45.434;9.116;2023-02-02T13:09:03;100841.44;;;33.13;13.36
59971;BME280;45825;45.434;9.116;2023-02-02T13:11:08;100831.88;;;32.72;14.16
59971;BME280;45825;45.434;9.116;2023-02-02T13:13:59;100853.31;;;31.96;14.55
59971;BME280;45825;45.434;9.116;2023-02-02T13:16:28;100840.41;;;31.50;14.51
59971;BME280;45825;45.434;9.116;2023-02-02T13:19:02;100844.28;;;32.61;13.66
59971;BME280;45825;45.434;9.116;2023-02-02T13:21:30;100845.00;;;32.43;13.83
59971;BME280;45825;45.434;9.116;2023-02-02T13:23:58;100844.06;;;32.63;14.06
59971;BME280;45825;45.434;9.116;2023-02-02T13:26:31;100844.94;;;32.88;13.76
59971;BME280;45825;45.434;9.116;2023-02-02T13:31:45;100843.13;;;32.82;13.71
59971;BME280;45825;45.434;9.116;2023-02-02T13:36:43;100838.50;;;31.85;14.55
59971;BME280;45825;45.434;9.116;2023-02-02T13:39:33;100843.69;;;32.91;13.97
59971;BME280;45825;45.434;9.116;2023-02-02T13:42:00;100831.63;;;32.41;14.14
59971;BME280;45825;45.434;9.116;2023-02-02T13:44:39;100831.66;;;33.06;13.74
59971;BME280;45825;45.434;9.116;2023-02-02T13:47:19;100831.66;;;33.31;13.37
59971;BME280;45825;45.434;9.116;2023-02-02T13:49:53;100825.44;;;33.24;14.02
59971;BME280;45825;45.434;9.116;2023-02-02T13:52:28;100820.88;;;32.85;14.17
59971;BME280;45825;45.434;9.116;2023-02-02T13:55:26;100819.91;;;33.05;14.22
59971;BME280;45825;45.434;9.116;2023-02-02T14:01:01;100805.19;;;32.81;13.92
59971;BME280;45825;45.434;9.116;2023-02-02T14:03:38;100801.19;;;32.05;14.14
59971;BME280;45825;45.434;9.116;2023-02-02T14:06:14;100803.00;;;32.64;13.82
59971;BME280;45825;45.434;9.116;2023-02-02T14:11:17;100787.72;;;32.17;14.45
59971;BME280;45825;45.434;9.116;2023-02-02T14:13:47;100787.13;;;31.22;15.13
59971;BME280;45825;45.434;9.116;2023-02-02T14:19:01;100782.53;;;32.16;14.89
59971;BME280;45825;45.434;9.116;2023-02-02T14:26:43;100786.69;;;31.12;15.77
59971;BME280;45825;45.434;9.116;2023-02-02T14:50:15;100825.59;;;17.58;31.15
59971;BME280;45825;45.434;9.116;2023-02-02T14:52:42;100832.41;;;17.27;32.03
59971;BME280;45825;45.434;9.116;2023-02-02T14:55:18;100830.06;;;16.98;32.77
59971;BME280;45825;45.434;9.116;2023-02-02T14:57:53;100829.03;;;16.87;33.24
59971;BME280;45825;45.434;9.116;2023-02-02T15:00:22;100828.34;;;16.48;33.97
59971;BME280;45825;45.434;9.116;2023-02-02T15:02:49;100822.50;;;16.30;34.61
59971;BME280;45825;45.434;9.116;2023-02-02T15:08:04;100819.56;;;15.83;36.40
59971;BME280;45825;45.434;9.116;2023-02-02T15:11:06;100820.25;;;15.59;37.27
59971;BME280;45825;45.434;9.116;2023-02-02T15:13:54;100801.66;;;15.33;37.89
59971;BME280;45825;45.434;9.116;2023-02-02T15:16:28;100812.78;;;15.25;38.20
59971;BME280;45825;45.434;9.116;2023-02-02T15:19:10;100808.53;;;15.22;38.71
59971;BME280;45825;45.434;9.116;2023-02-02T15:21:39;100810.88;;;15.27;38.94
59971;BME280;45825;45.434;9.116;2023-02-02T15:24:12;100812.22;;;15.07;40.15
59971;BME280;45825;45.434;9.116;2023-02-02T15:26:40;100813.25;;;15.04;40.18
59971;BME280;45825;45.434;9.116;2023-02-02T15:29:16;100815.84;;;14.91;40.33
59971;BME280;45825;45.434;9.116;2023-02-02T15:31:49;100823.88;;;14.90;40.50
59971;BME280;45825;45.434;9.116;2023-02-02T15:34:41;100821.34;;;14.88;40.67